createdAt,value
2019-03-27T00:01:57.008Z,47.70
2019-03-27T00:04:03.329Z,47.80
2019-03-27T00:06:08.784Z,47.70
2019-03-27T00:08:14.205Z,47.70
2019-03-27T00:10:19.590Z,47.70
2019-03-27T00:12:24.889Z,47.70
2019-03-27T00:14:30.117Z,47.70
2019-03-27T00:16:35.409Z,47.80
2019-03-27T00:18:41.585Z,47.80
2019-03-27T00:20:47.450Z,47.70
2019-03-27T00:22:53.029Z,47.70
2019-03-27T00:24:59.490Z,47.70
2019-03-27T00:27:04.766Z,47.70
2019-03-27T00:29:09.962Z,47.80
2019-03-27T00:31:15.358Z,47.80
2019-03-27T00:33:21.973Z,47.80
2019-03-27T00:35:27.438Z,47.80
2019-03-27T00:37:32.768Z,47.70
2019-03-27T00:39:38.167Z,47.70
2019-03-27T00:41:43.499Z,47.80
2019-03-27T00:43:49.030Z,47.80
2019-03-27T00:45:54.345Z,47.70
2019-03-27T00:47:59.749Z,47.80
2019-03-27T00:50:05.330Z,47.80
2019-03-27T00:52:12.330Z,47.70
2019-03-27T00:54:17.730Z,47.70
2019-03-27T00:56:23.026Z,47.70
2019-03-27T00:58:28.429Z,47.70
2019-03-27T01:00:57.728Z,47.70
2019-03-27T01:03:03.290Z,47.70
2019-03-27T01:05:09.706Z,47.70
2019-03-27T01:07:15.143Z,47.70
2019-03-27T01:09:20.511Z,47.70
2019-03-27T01:11:25.764Z,47.70
2019-03-27T01:13:31.340Z,47.70
2019-03-27T01:15:40.063Z,47.80
2019-03-27T01:17:43.691Z,47.80
2019-03-27T01:19:49.051Z,47.70
2019-03-27T01:21:54.320Z,47.70
2019-03-27T01:23:59.658Z,47.70
2019-03-27T01:26:05.270Z,47.70
2019-03-27T01:28:10.550Z,47.70
2019-03-27T01:30:15.871Z,47.70
2019-03-27T01:32:21.152Z,47.70
2019-03-27T01:34:26.419Z,47.70
2019-03-27T01:36:31.797Z,47.70
2019-03-27T01:38:37.631Z,47.70
2019-03-27T01:40:43.010Z,47.70
2019-03-27T01:42:48.419Z,47.70
2019-03-27T01:44:53.661Z,47.70
2019-03-27T01:46:59.890Z,47.70
2019-03-27T01:49:05.312Z,47.70
2019-03-27T01:51:10.583Z,47.60
2019-03-27T01:53:15.978Z,47.70
2019-03-27T01:55:21.423Z,47.70
2019-03-27T01:57:26.747Z,47.70
2019-03-27T01:59:32.109Z,47.60
2019-03-27T02:01:37.449Z,47.60
2019-03-27T02:03:42.749Z,47.70
2019-03-27T02:05:48.143Z,47.60
2019-03-27T02:07:53.446Z,47.60
2019-03-27T02:09:58.878Z,47.60
2019-03-27T02:12:04.161Z,47.60
2019-03-27T02:14:09.397Z,47.60
2019-03-27T02:16:15.281Z,47.60
2019-03-27T02:18:20.739Z,47.50
2019-03-27T02:20:26.133Z,47.50
2019-03-27T02:22:31.445Z,47.50
2019-03-27T02:24:36.878Z,47.60
2019-03-27T02:26:42.217Z,47.60
2019-03-27T02:28:47.792Z,47.50
2019-03-27T02:30:53.090Z,47.50
2019-03-27T02:32:58.412Z,47.50
2019-03-27T02:35:03.730Z,47.50
2019-03-27T02:37:09.099Z,47.60
2019-03-27T02:39:14.471Z,47.50
2019-03-27T02:41:19.815Z,47.60
2019-03-27T02:43:25.146Z,47.50
2019-03-27T02:45:30.450Z,47.50
2019-03-27T02:47:35.729Z,47.50
2019-03-27T02:49:41.155Z,47.50
2019-03-27T02:51:46.858Z,47.50
2019-03-27T02:53:52.310Z,47.50
2019-03-27T02:55:57.640Z,47.50
2019-03-27T02:58:03.082Z,47.50
2019-03-27T03:00:10.367Z,47.40
2019-03-27T03:02:15.809Z,47.50
2019-03-27T03:04:21.303Z,47.50
2019-03-27T03:06:27.248Z,47.40
2019-03-27T03:08:32.680Z,47.50
2019-03-27T03:10:37.996Z,47.50
2019-03-27T03:12:43.392Z,47.40
2019-03-27T03:14:48.739Z,47.50
2019-03-27T03:16:54.076Z,47.50
2019-03-27T03:18:59.399Z,47.50
2019-03-27T03:21:04.682Z,47.50
2019-03-27T03:23:10.250Z,47.40
2019-03-27T03:25:15.711Z,47.40
2019-03-27T03:27:21.029Z,47.40
2019-03-27T03:29:26.682Z,47.40
2019-03-27T03:31:32.101Z,47.30
2019-03-27T03:33:37.474Z,47.30
2019-03-27T03:35:42.848Z,47.40
2019-03-27T03:37:48.145Z,47.30
2019-03-27T03:39:53.467Z,47.30
2019-03-27T03:41:58.945Z,47.30
2019-03-27T03:44:04.446Z,47.40
2019-03-27T03:46:09.726Z,47.30
2019-03-27T03:48:15.078Z,47.30
2019-03-27T03:50:40.410Z,47.30
2019-03-27T03:52:46.151Z,47.20
2019-03-27T03:54:52.358Z,47.20
2019-03-27T03:57:16.705Z,47.90
2019-03-27T03:59:22.157Z,47.20
2019-03-27T04:01:27.974Z,47.20
2019-03-27T04:03:35.812Z,47.20
2019-03-27T04:05:41.112Z,47.20
2019-03-27T04:07:46.450Z,47.10
2019-03-27T04:09:51.756Z,47.20
2019-03-27T04:11:57.328Z,47.10
2019-03-27T04:14:02.705Z,47.10
2019-03-27T04:16:08.072Z,47.10
2019-03-27T04:18:13.473Z,47.10
2019-03-27T04:20:18.884Z,47.10
2019-03-27T04:22:24.213Z,47.10
2019-03-27T04:24:29.610Z,47.70
2019-03-27T04:26:34.906Z,47.10
2019-03-27T04:28:40.892Z,47.10
2019-03-27T04:30:46.284Z,47.00
2019-03-27T04:32:52.713Z,47.10
2019-03-27T04:34:58.087Z,46.90
2019-03-27T04:37:03.445Z,47.40
2019-03-27T04:39:08.764Z,47.10
2019-03-27T04:41:14.053Z,47.00
2019-03-27T04:43:19.345Z,47.00
2019-03-27T04:45:24.781Z,46.90
2019-03-27T04:47:32.520Z,46.90
2019-03-27T04:49:37.227Z,46.90
2019-03-27T04:51:42.888Z,46.60
2019-03-27T04:53:48.296Z,47.00
2019-03-27T04:55:53.560Z,47.00
2019-03-27T04:57:58.804Z,46.90
2019-03-27T05:00:04.387Z,46.80
2019-03-27T05:02:09.721Z,46.90
2019-03-27T05:04:15.312Z,46.80
2019-03-27T05:06:20.624Z,46.80
2019-03-27T05:08:28.027Z,46.80
2019-03-27T05:10:33.411Z,46.80
2019-03-27T05:12:39.044Z,46.90
2019-03-27T05:14:44.443Z,46.80
2019-03-27T05:16:49.771Z,46.80
2019-03-27T05:18:55.033Z,46.80
2019-03-27T05:21:00.349Z,46.80
2019-03-27T05:23:05.825Z,46.70
2019-03-27T05:25:11.180Z,46.70
2019-03-27T05:27:16.485Z,46.90
2019-03-27T05:29:22.366Z,46.70
2019-03-27T05:31:27.696Z,46.70
2019-03-27T05:33:33.036Z,46.70
2019-03-27T05:35:39.417Z,46.70
2019-03-27T05:37:44.857Z,46.70
2019-03-27T05:39:50.265Z,46.80
2019-03-27T05:41:55.550Z,46.80
2019-03-27T05:44:00.972Z,46.60
2019-03-27T05:46:06.610Z,46.80
2019-03-27T05:48:11.930Z,46.90
2019-03-27T05:50:17.362Z,46.90
2019-03-27T05:52:22.635Z,46.70
2019-03-27T05:54:27.907Z,46.90
2019-03-27T05:56:34.401Z,47.00
2019-03-27T05:58:39.722Z,46.50
2019-03-27T06:00:45.082Z,47.20
2019-03-27T06:02:50.649Z,47.60
2019-03-27T06:04:56.030Z,47.50
2019-03-27T06:07:01.374Z,47.90
2019-03-27T06:09:07.464Z,47.70
2019-03-27T06:11:13.053Z,48.00
2019-03-27T06:13:18.399Z,48.10
2019-03-27T06:15:23.819Z,48.50
2019-03-27T06:17:29.147Z,48.70
2019-03-27T06:19:34.571Z,48.80
2019-03-27T06:21:39.941Z,48.90
2019-03-27T06:23:45.369Z,49.00
2019-03-27T06:25:50.918Z,49.20
2019-03-27T06:27:56.282Z,49.30
2019-03-27T06:30:01.750Z,49.20
2019-03-27T06:32:07.249Z,49.50
2019-03-27T06:34:12.435Z,49.60
2019-03-27T06:36:18.435Z,49.70
2019-03-27T06:38:23.785Z,50.00
2019-03-27T06:40:29.070Z,50.10
2019-03-27T06:42:34.349Z,50.10
2019-03-27T06:44:40.919Z,50.10
2019-03-27T06:46:46.243Z,50.40
2019-03-27T06:48:51.801Z,50.20
2019-03-27T06:50:57.169Z,50.40
2019-03-27T06:53:02.498Z,50.60
2019-03-27T06:55:08.131Z,50.50
2019-03-27T06:57:15.459Z,50.50
2019-03-27T06:59:20.788Z,50.50
2019-03-27T07:01:26.179Z,50.40
2019-03-27T07:03:31.612Z,50.30
2019-03-27T07:05:37.006Z,50.30
2019-03-27T07:07:42.372Z,50.20
2019-03-27T07:09:47.638Z,50.20
2019-03-27T07:11:53.889Z,50.20
2019-03-27T07:13:59.229Z,50.10
2019-03-27T07:16:04.783Z,50.10
2019-03-27T07:18:10.142Z,50.00
2019-03-27T07:20:15.417Z,50.00
2019-03-27T07:22:20.890Z,50.00
2019-03-27T07:24:26.290Z,49.90
2019-03-27T07:26:31.688Z,49.90
2019-03-27T07:28:37.104Z,49.80
2019-03-27T07:30:42.443Z,49.80
2019-03-27T07:32:47.762Z,49.80
2019-03-27T07:34:53.049Z,49.70
2019-03-27T07:36:58.962Z,49.70
2019-03-27T07:39:10.981Z,49.70
2019-03-27T07:41:12.282Z,49.70
2019-03-27T07:43:17.748Z,49.60
2019-03-27T07:45:23.171Z,49.60
2019-03-27T07:47:28.850Z,49.60
2019-03-27T07:49:34.172Z,49.50
2019-03-27T07:51:39.573Z,49.50
2019-03-27T07:53:44.879Z,49.50
2019-03-27T07:55:50.291Z,49.40
2019-03-27T07:57:55.584Z,49.40
2019-03-27T08:00:00.959Z,49.40
2019-03-27T08:02:06.275Z,49.40
2019-03-27T08:04:14.381Z,49.30
2019-03-27T08:06:18.705Z,49.30
2019-03-27T08:08:24.062Z,49.40
2019-03-27T08:10:29.528Z,49.20
2019-03-27T08:12:35.010Z,49.20
2019-03-27T08:14:41.309Z,49.20
2019-03-27T08:16:46.531Z,49.10
2019-03-27T08:18:51.930Z,49.10
2019-03-27T08:20:57.283Z,48.80
2019-03-27T08:23:02.694Z,48.80
2019-03-27T08:25:08.683Z,48.70
2019-03-27T08:27:15.187Z,48.60
2019-03-27T08:29:20.570Z,48.50
2019-03-27T08:31:25.832Z,48.40
2019-03-27T08:33:31.190Z,48.40
2019-03-27T08:35:36.956Z,48.40
2019-03-27T08:37:42.286Z,48.40
2019-03-27T08:39:47.570Z,48.30
2019-03-27T08:41:53.612Z,48.30
2019-03-27T08:43:58.958Z,48.20
2019-03-27T08:46:04.339Z,48.20
2019-03-27T08:48:09.893Z,48.20
2019-03-27T08:50:15.354Z,48.20
2019-03-27T08:52:20.745Z,48.20
2019-03-27T08:54:26.131Z,48.20
2019-03-27T08:56:31.582Z,48.20
2019-03-27T08:58:37.144Z,48.10
2019-03-27T09:00:46.810Z,48.10
2019-03-27T09:02:52.191Z,48.10
2019-03-27T09:04:57.503Z,48.00
2019-03-27T09:07:03.640Z,48.00
2019-03-27T09:09:10.550Z,48.00
2019-03-27T09:11:15.984Z,48.00
2019-03-27T09:13:22.458Z,47.90
2019-03-27T09:15:28.750Z,47.90
2019-03-27T09:17:33.987Z,47.90
2019-03-27T09:19:39.283Z,47.90
2019-03-27T09:21:44.632Z,47.90
2019-03-27T09:23:49.854Z,47.90
2019-03-27T09:25:55.204Z,47.90
2019-03-27T09:28:00.705Z,47.80
2019-03-27T09:30:09.476Z,47.80
2019-03-27T09:32:14.912Z,47.80
2019-03-27T09:34:21.205Z,47.80
2019-03-27T09:36:26.463Z,47.70
2019-03-27T09:38:32.034Z,47.60
2019-03-27T09:40:37.320Z,47.60
2019-03-27T09:42:42.627Z,47.40
2019-03-27T09:44:47.929Z,47.50
2019-03-27T09:46:53.412Z,47.50
2019-03-27T09:48:58.682Z,47.40
2019-03-27T09:51:04.054Z,47.40
2019-03-27T09:53:09.512Z,47.30
2019-03-27T09:55:14.864Z,47.30
2019-03-27T09:57:23.861Z,47.30
2019-03-27T10:00:06.406Z,47.20
2019-03-27T10:02:16.788Z,47.20
2019-03-27T10:04:23.194Z,47.20
2019-03-27T10:06:28.598Z,47.20
2019-03-27T10:08:34.060Z,47.20
2019-03-27T10:10:39.334Z,47.20
2019-03-27T10:12:44.674Z,47.30
2019-03-27T10:14:50.106Z,47.30
2019-03-27T10:17:40.527Z,47.30
2019-03-27T10:20:27.391Z,47.30
2019-03-27T10:22:35.287Z,47.30
2019-03-27T10:24:40.576Z,47.30
2019-03-27T10:26:45.820Z,47.30
2019-03-27T10:28:51.335Z,47.30
2019-03-27T10:30:56.771Z,47.30
2019-03-27T10:33:04.588Z,47.40
2019-03-27T10:35:11.160Z,47.30
2019-03-27T10:37:16.450Z,47.40
2019-03-27T10:39:23.859Z,47.40
2019-03-27T10:41:29.157Z,47.40
2019-03-27T10:43:34.402Z,47.40
2019-03-27T10:45:39.629Z,47.40
2019-03-27T10:47:44.989Z,47.30
2019-03-27T10:49:50.247Z,47.20
2019-03-27T10:51:55.824Z,47.10
2019-03-27T10:54:01.106Z,46.90
2019-03-27T10:56:06.421Z,46.90
2019-03-27T10:58:11.717Z,46.90
2019-03-27T11:00:17.099Z,46.80
2019-03-27T11:02:23.070Z,46.80
2019-03-27T11:04:29.553Z,46.90
2019-03-27T11:06:35.122Z,46.80
2019-03-27T11:08:44.378Z,46.80
2019-03-27T11:10:49.673Z,46.70
2019-03-27T11:12:55.004Z,46.70
2019-03-27T11:15:01.317Z,46.70
2019-03-27T11:17:06.563Z,46.60
2019-03-27T11:19:11.857Z,46.60
2019-03-27T11:21:17.210Z,46.60
2019-03-27T11:23:22.562Z,46.60
2019-03-27T11:25:27.942Z,46.50
2019-03-27T11:27:33.306Z,46.60
2019-03-27T11:29:38.700Z,46.60
2019-03-27T11:31:44.024Z,46.50
2019-03-27T11:33:49.252Z,46.30
2019-03-27T11:35:54.661Z,46.40
2019-03-27T11:37:59.988Z,46.20
2019-03-27T11:40:09.207Z,46.10
2019-03-27T11:42:14.614Z,46.10
2019-03-27T11:44:20.983Z,46.00
2019-03-27T11:46:26.276Z,46.00
2019-03-27T11:48:31.732Z,46.10
2019-03-27T11:50:44.598Z,46.00
2019-03-27T11:52:44.404Z,46.00
2019-03-27T11:54:49.726Z,46.00
2019-03-27T11:56:55.104Z,46.00
2019-03-27T11:59:01.481Z,45.90
2019-03-27T12:01:06.708Z,45.90
2019-03-27T12:03:12.048Z,45.90
2019-03-27T12:05:17.377Z,45.80
2019-03-27T12:07:25.780Z,45.80
2019-03-27T12:09:31.147Z,45.80
2019-03-27T12:11:36.521Z,45.70
2019-03-27T12:13:41.870Z,45.60
2019-03-27T12:15:47.159Z,45.70
2019-03-27T12:17:52.467Z,45.50
2019-03-27T12:19:57.768Z,45.50
2019-03-27T12:22:04.154Z,45.40
2019-03-27T12:24:09.598Z,45.40
2019-03-27T12:26:14.922Z,45.40
2019-03-27T12:28:20.354Z,45.30
2019-03-27T12:30:25.697Z,45.20
2019-03-27T12:32:31.060Z,45.20
2019-03-27T12:34:36.948Z,45.10
2019-03-27T12:36:42.396Z,45.10
2019-03-27T12:38:47.996Z,45.00
2019-03-27T12:40:53.386Z,45.10
2019-03-27T12:42:58.771Z,45.00
2019-03-27T12:45:05.216Z,45.10
2019-03-27T12:47:10.617Z,45.00
2019-03-27T12:49:15.953Z,45.00
2019-03-27T12:51:21.473Z,44.90
2019-03-27T12:53:26.813Z,44.90
2019-03-27T12:55:32.204Z,44.90
2019-03-27T12:57:37.479Z,44.80
2019-03-27T12:59:44.445Z,44.70
2019-03-27T13:01:49.824Z,44.70
2019-03-27T13:03:55.239Z,44.70
2019-03-27T13:06:00.528Z,44.60
2019-03-27T13:08:06.048Z,44.60
2019-03-27T13:10:11.499Z,44.50
2019-03-27T13:12:16.868Z,44.50
2019-03-27T13:14:22.199Z,44.40
2019-03-27T13:16:27.478Z,44.40
2019-03-27T13:18:32.806Z,44.50
2019-03-27T13:20:38.085Z,44.40
2019-03-27T13:22:43.692Z,44.40
2019-03-27T13:24:49.037Z,44.30
2019-03-27T13:26:54.349Z,44.30
2019-03-27T13:28:59.706Z,44.30
2019-03-27T13:31:05.947Z,44.20
2019-03-27T13:33:11.246Z,44.10
2019-03-27T13:35:16.565Z,44.10
2019-03-27T13:37:21.830Z,44.10
2019-03-27T13:39:27.234Z,44.10
2019-03-27T13:41:32.499Z,44.10
2019-03-27T13:43:37.820Z,44.00
2019-03-27T13:45:43.082Z,44.00
2019-03-27T13:47:48.363Z,44.00
2019-03-27T13:49:53.759Z,44.00
2019-03-27T13:51:59.084Z,43.90
2019-03-27T13:54:04.457Z,44.00
2019-03-27T13:56:09.800Z,43.90
2019-03-27T13:58:15.152Z,43.70
2019-03-27T14:00:21.520Z,43.80
2019-03-27T14:02:26.867Z,43.80
2019-03-27T14:04:33.251Z,43.80
2019-03-27T14:06:38.532Z,43.70
2019-03-27T14:08:44.254Z,43.80
2019-03-27T14:10:49.757Z,43.90
2019-03-27T14:12:55.075Z,43.80
2019-03-27T14:15:00.569Z,43.80
2019-03-27T14:17:05.876Z,43.80
2019-03-27T14:19:11.187Z,43.80
2019-03-27T14:21:16.592Z,43.80
2019-03-27T14:23:22.074Z,43.80
2019-03-27T14:25:27.399Z,43.80
2019-03-27T14:27:32.789Z,43.80
2019-03-27T14:29:39.529Z,43.80
2019-03-27T14:31:44.884Z,43.80
2019-03-27T14:33:50.231Z,43.80
2019-03-27T14:35:55.539Z,43.80
2019-03-27T14:38:00.926Z,43.90
2019-03-27T14:40:08.179Z,43.90
2019-03-27T14:42:13.458Z,43.80
2019-03-27T14:44:18.747Z,43.90
2019-03-27T14:46:24.068Z,43.90
2019-03-27T14:48:29.479Z,43.80
2019-03-27T14:50:34.779Z,44.00
2019-03-27T14:52:40.239Z,44.00
2019-03-27T14:54:45.617Z,44.00
2019-03-27T14:56:50.977Z,44.10
2019-03-27T14:58:56.531Z,44.10
2019-03-27T15:01:01.965Z,44.20
2019-03-27T15:03:07.487Z,44.10
2019-03-27T15:05:12.838Z,44.10
2019-03-27T15:07:18.381Z,44.20
2019-03-27T15:09:23.787Z,44.30
2019-03-27T15:11:29.121Z,44.10
2019-03-27T15:13:34.561Z,44.20
2019-03-27T15:15:39.817Z,44.10
2019-03-27T15:17:45.079Z,44.30
2019-03-27T15:19:50.398Z,44.30
2019-03-27T15:21:56.155Z,44.40
2019-03-27T15:24:01.753Z,44.40
2019-03-27T15:26:07.075Z,44.40
2019-03-27T15:28:12.452Z,44.60
2019-03-27T15:30:19.328Z,44.60
2019-03-27T15:32:24.807Z,44.60
2019-03-27T15:34:30.199Z,44.70
2019-03-27T15:36:35.519Z,44.70
2019-03-27T15:38:40.859Z,44.80
2019-03-27T15:40:46.535Z,44.80
2019-03-27T15:42:53.664Z,44.90
2019-03-27T15:45:00.007Z,44.90
2019-03-27T15:47:05.362Z,45.00
2019-03-27T15:49:10.703Z,44.40
2019-03-27T15:51:16.041Z,45.10
2019-03-27T15:53:21.368Z,45.00
2019-03-27T15:55:26.742Z,45.00
2019-03-27T15:57:32.073Z,45.10
2019-03-27T15:59:37.439Z,45.10
2019-03-27T16:01:42.857Z,45.20
2019-03-27T16:03:48.180Z,45.30
2019-03-27T16:05:53.491Z,45.20
2019-03-27T16:07:58.869Z,45.20
2019-03-27T16:10:04.492Z,45.20
2019-03-27T16:12:09.879Z,45.30
2019-03-27T16:14:15.194Z,45.30
2019-03-27T16:16:20.479Z,45.40
2019-03-27T16:18:27.228Z,45.40
2019-03-27T16:20:32.650Z,45.40
2019-03-27T16:22:50.050Z,45.50
2019-03-27T16:24:46.238Z,45.50
2019-03-27T16:27:03.862Z,45.30
2019-03-27T16:28:58.808Z,45.30
2019-03-27T16:31:04.302Z,45.40
2019-03-27T16:33:09.654Z,45.50
2019-03-27T16:35:24.605Z,45.50
2019-03-27T16:37:32.254Z,45.40
2019-03-27T16:39:40.397Z,45.50
2019-03-27T16:41:57.059Z,45.40
2019-03-27T16:44:09.555Z,45.50
2019-03-27T16:46:17.353Z,45.50
2019-03-27T16:48:25.207Z,45.60
2019-03-27T16:50:32.835Z,45.50
2019-03-27T16:52:40.605Z,45.60
2019-03-27T16:54:47.846Z,45.60
2019-03-27T16:57:03.325Z,45.50
2019-03-27T16:59:20.740Z,45.60
2019-03-27T17:01:27.897Z,45.60
2019-03-27T17:03:37.505Z,45.60
2019-03-27T17:05:53.413Z,45.60
2019-03-27T17:07:51.977Z,45.60
2019-03-27T17:09:59.038Z,45.50
2019-03-27T17:12:09.527Z,45.60
2019-03-27T17:14:33.479Z,45.60
2019-03-27T17:16:51.113Z,45.60
2019-03-27T17:18:58.196Z,45.60
2019-03-27T17:21:04.873Z,45.70
2019-03-27T17:23:18.595Z,45.60
2019-03-27T17:25:20.699Z,45.50
2019-03-27T17:27:26.641Z,45.50
2019-03-27T17:29:32.880Z,45.70
2019-03-27T17:31:40.323Z,45.70
2019-03-27T17:33:47.306Z,45.70
2019-03-27T17:35:53.892Z,45.60
2019-03-27T17:38:02.186Z,45.70
2019-03-27T17:40:19.598Z,45.70
2019-03-27T17:42:36.191Z,45.60
2019-03-27T17:44:47.667Z,45.70
2019-03-27T17:46:55.160Z,45.60
2019-03-27T17:49:05.471Z,45.70
2019-03-27T17:51:16.248Z,45.50
2019-03-27T17:53:34.118Z,45.60
2019-03-27T17:55:45.059Z,45.70
2019-03-27T17:57:52.803Z,45.70
2019-03-27T17:59:59.561Z,45.70
2019-03-27T18:02:07.289Z,45.70
2019-03-27T18:04:30.658Z,45.70
2019-03-27T18:06:41.318Z,45.70
2019-03-27T18:08:50.747Z,45.80
2019-03-27T18:11:01.627Z,46.10
2019-03-27T18:13:07.346Z,46.10
2019-03-27T18:15:12.741Z,46.10
2019-03-27T18:17:19.064Z,46.20
2019-03-27T18:19:24.537Z,46.20
2019-03-27T18:21:29.918Z,46.50
2019-03-27T18:23:45.995Z,46.40
2019-03-27T18:25:42.801Z,46.80
2019-03-27T18:27:48.295Z,47.40
2019-03-27T18:29:53.738Z,47.00
2019-03-27T18:31:59.285Z,47.10
2019-03-27T18:34:04.661Z,47.30
2019-03-27T18:36:10.117Z,47.40
2019-03-27T18:38:15.809Z,47.30
2019-03-27T18:40:21.459Z,47.50
2019-03-27T18:42:26.850Z,47.60
2019-03-27T18:44:32.327Z,47.80
2019-03-27T18:46:37.759Z,47.90
2019-03-27T18:48:44.442Z,48.10
2019-03-27T18:50:49.979Z,48.30
2019-03-27T18:52:55.464Z,48.50
2019-03-27T18:55:00.961Z,49.00
2019-03-27T18:57:06.597Z,49.10
2019-03-27T18:59:12.220Z,49.30
2019-03-27T19:01:17.801Z,49.40
2019-03-27T19:03:23.455Z,49.60
2019-03-27T19:05:29.034Z,49.50
2019-03-27T19:07:34.457Z,50.00
2019-03-27T19:09:40.215Z,50.20
2019-03-27T19:11:46.845Z,50.00
2019-03-27T19:13:53.955Z,50.40
2019-03-27T19:15:59.463Z,50.60
2019-03-27T19:18:05.014Z,50.80
2019-03-27T19:20:12.808Z,50.80
2019-03-27T19:22:18.309Z,50.80
2019-03-27T19:24:23.866Z,50.80
2019-03-27T19:26:29.333Z,50.90
2019-03-27T19:28:34.781Z,50.90
2019-03-27T19:30:40.433Z,51.00
2019-03-27T19:32:45.842Z,51.00
2019-03-27T19:34:51.336Z,51.00
2019-03-27T19:36:57.102Z,51.00
2019-03-27T19:39:02.605Z,51.10
2019-03-27T19:41:09.801Z,51.20
2019-03-27T19:43:15.237Z,51.10
2019-03-27T19:45:21.786Z,51.20
2019-03-27T19:47:27.196Z,51.20
2019-03-27T19:49:32.796Z,51.20
2019-03-27T19:51:38.349Z,51.20
2019-03-27T19:53:43.762Z,51.20
2019-03-27T19:55:49.222Z,51.20
2019-03-27T19:57:54.693Z,51.20
2019-03-27T20:00:00.321Z,51.30
2019-03-27T20:02:06.033Z,51.30
2019-03-27T20:04:11.604Z,51.30
2019-03-27T20:06:17.335Z,51.90
2019-03-27T20:08:23.076Z,51.40
2019-03-27T20:10:29.378Z,51.40
2019-03-27T20:12:34.837Z,51.40
2019-03-27T20:14:42.511Z,51.50
2019-03-27T20:16:47.333Z,51.50
2019-03-27T20:18:52.822Z,51.40
2019-03-27T20:20:58.177Z,51.40
2019-03-27T20:23:14.389Z,51.40
2019-03-27T20:25:14.684Z,51.50
2019-03-27T20:27:18.907Z,51.60
2019-03-27T20:29:24.447Z,51.60
2019-03-27T20:31:29.815Z,51.60
2019-03-27T20:33:38.218Z,51.60
2019-03-27T20:35:42.935Z,51.60
2019-03-27T20:37:49.940Z,51.70
2019-03-27T20:39:55.354Z,51.70
2019-03-27T20:42:00.861Z,51.60
2019-03-27T20:44:06.419Z,51.70
2019-03-27T20:46:24.452Z,51.70
2019-03-27T20:48:19.243Z,51.70
2019-03-27T20:50:26.940Z,51.70
2019-03-27T20:52:31.687Z,51.70
2019-03-27T20:54:37.104Z,51.80
2019-03-27T20:56:42.510Z,51.90
2019-03-27T20:58:48.299Z,51.90
2019-03-27T21:00:53.764Z,51.90
2019-03-27T21:02:59.284Z,51.80
2019-03-27T21:05:05.320Z,51.70
2019-03-27T21:07:10.884Z,51.60
2019-03-27T21:09:16.214Z,51.40
2019-03-27T21:11:21.878Z,51.30
2019-03-27T21:13:27.319Z,51.10
2019-03-27T21:15:32.844Z,51.00
2019-03-27T21:17:38.356Z,50.70
2019-03-27T21:19:43.704Z,50.60
2019-03-27T21:21:49.153Z,50.40
2019-03-27T21:23:54.585Z,50.30
2019-03-27T21:26:00.033Z,50.20
2019-03-27T21:28:05.327Z,50.20
2019-03-27T21:30:11.048Z,50.10
2019-03-27T21:32:16.645Z,50.10
2019-03-27T21:34:22.123Z,50.00
2019-03-27T21:36:27.532Z,50.00
2019-03-27T21:38:33.003Z,49.80
2019-03-27T21:40:39.452Z,49.90
2019-03-27T21:42:45.063Z,49.90
2019-03-27T21:44:51.444Z,49.80
2019-03-27T21:46:58.428Z,49.70
2019-03-27T21:49:03.919Z,49.70
2019-03-27T21:51:09.943Z,49.60
2019-03-27T21:53:15.404Z,49.60
2019-03-27T21:55:22.936Z,49.50
2019-03-27T21:57:28.715Z,49.50
2019-03-27T21:59:34.094Z,49.50
2019-03-27T22:01:39.525Z,49.40
2019-03-27T22:03:44.980Z,49.40
2019-03-27T22:05:50.321Z,49.40
2019-03-27T22:07:55.765Z,49.40
2019-03-27T22:10:01.164Z,49.40
2019-03-27T22:12:06.522Z,49.40
2019-03-27T22:14:11.943Z,49.40
2019-03-27T22:16:17.687Z,49.40
2019-03-27T22:18:23.060Z,49.50
2019-03-27T22:20:28.384Z,49.40
2019-03-27T22:22:33.904Z,49.50
2019-03-27T22:24:39.460Z,49.50
2019-03-27T22:26:46.881Z,49.60
2019-03-27T22:28:52.310Z,49.70
2019-03-27T22:30:57.933Z,49.80
2019-03-27T22:33:03.427Z,49.90
2019-03-27T22:35:08.841Z,50.00
2019-03-27T22:37:14.349Z,50.00
2019-03-27T22:39:19.673Z,50.00
2019-03-27T22:41:25.329Z,50.20
2019-03-27T22:43:30.641Z,50.20
2019-03-27T22:45:36.079Z,50.30
2019-03-27T22:47:41.537Z,50.50
2019-03-27T22:49:47.115Z,50.50
2019-03-27T22:51:52.393Z,50.50
2019-03-27T22:53:57.763Z,50.60
2019-03-27T22:56:03.635Z,50.60
2019-03-27T22:58:08.979Z,50.70
2019-03-27T23:00:15.598Z,50.80
2019-03-27T23:02:22.448Z,50.80
2019-03-27T23:04:27.948Z,50.80
2019-03-27T23:06:33.279Z,50.80
2019-03-27T23:08:38.809Z,51.00
2019-03-27T23:10:44.100Z,51.00
2019-03-27T23:12:51.569Z,51.00
2019-03-27T23:14:57.143Z,51.10
2019-03-27T23:17:02.544Z,51.20
2019-03-27T23:19:07.918Z,51.20
2019-03-27T23:21:13.310Z,51.30
2019-03-27T23:23:18.663Z,51.20
2019-03-27T23:25:24.076Z,51.30
2019-03-27T23:27:29.436Z,51.30
2019-03-27T23:29:35.030Z,51.40
2019-03-27T23:31:40.361Z,51.40
2019-03-27T23:33:45.773Z,51.40
2019-03-27T23:35:51.294Z,51.50
2019-03-27T23:37:56.835Z,51.50
2019-03-27T23:40:02.236Z,51.60
2019-03-27T23:42:07.535Z,51.60
2019-03-27T23:44:12.890Z,51.60
2019-03-27T23:46:18.275Z,51.80
2019-03-27T23:48:23.574Z,51.70
2019-03-27T23:50:30.003Z,51.70
2019-03-27T23:52:35.385Z,51.60
2019-03-27T23:54:40.732Z,51.60
2019-03-27T23:56:47.607Z,51.60
2019-03-27T23:58:53.477Z,51.80
